No particular awareness of the weather is required.   -   There are no Weather-warnings

Irish METAR Reports

 

EIDW - Dublin Airport, Ireland
Distance from station: NNW 22km
Updated: 18/02/2018 19:00
Light rain, Drizzle, Mostly cloudy
Light rain, Drizzle, Mostly cloudy
 Wind from WSW
Wind: WSW 22 km/h
Temperature: 10°C
Wind Chill: 7°C
Dew Point: 10°C
Humidity: 100%
Barometer: 1016 hPa
Summary: Light rain, Drizzle
Clouds: Mostly cloudy
Visibility: 7 km
Cloud details: Few Clouds 91 m
Mostly cloudy 183 m
Mostly cloudy 914 m
2018/02/18 18:00 EIDW 181800Z 25012KT 7000 -RADZ FEW003 BKN006 BKN030 10/10 Q1016 NOSIG
EGAA - Belfast/Aldergro, United Kingdom
Distance from station: N 154km
Updated: 18/02/2018 18:50
Light rain, Mostly cloudy
Light rain, Mostly cloudy
 Wind from S
Wind: S 11 km/h
Temperature: 8°C
Wind Chill: 6°C
Dew Point: 8°C
Humidity: 100%
Barometer: 1014 hPa
Summary: Light rain
Clouds: Mostly cloudy
Visibility: 6 km
Cloud details: Mostly cloudy 91 m
2018/02/18 17:50 EGAA 181750Z 18006KT 150V210 6000 -RA BKN003 08/08 Q1014
 
EIKN - Connaught Apt, Ireland
Distance from station: WNW 192km
Updated: 18/02/2018 19:00
Mist, Overcast
Mist, Overcast
 Wind from W
Wind: W 24 km/h
Temperature: 10°C
Wind Chill: 7°C
Dew Point: 10°C
Humidity: 100%
Barometer: 1015 hPa
Summary: Mist
Clouds: Overcast
Visibility: 2 km
Cloud details: Overcast 61 m
2018/02/18 18:00 EIKN 181800Z 26013KT 1800 BR OVC002 10/10 Q1015 NOSIG
EINN - Shannon Airport, Ireland
Distance from station: WSW 196km
Updated: 18/02/2018 19:00
Mist, Mostly cloudy
Mist, Mostly cloudy
 Wind from SW
Wind: SW 15 km/h
Temperature: 10°C
Wind Chill: 8°C
Dew Point: 9°C
Humidity: 94%
Barometer: 1018 hPa
Summary: Mist
Clouds: Mostly cloudy
Visibility: 4 km
Cloud details: Mostly cloudy 244 m
Mostly cloudy 762 m
2018/02/18 18:00 EINN 181800Z 23008KT 4000 BR BKN008 BKN025 10/09 Q1018 NOSIG
 
EICK - Cork Arpt/Corcai, Ireland
Distance from station: SW 221km
Updated: 18/02/2018 19:00
Mostly cloudy
Mostly cloudy
 Wind from W
Wind: W 9 km/h
Temperature: 11°C
Dew Point: 10°C
Humidity: 94%
Barometer: 1019 hPa
Clouds: Mostly cloudy
Visibility: 10 km
Cloud details: Few Clouds 244 m
Partly cloudy 457 m
Mostly cloudy 3658 m
2018/02/18 18:00 EICK 181800Z 28005KT 9999 FEW008 SCT015 BKN120 11/10 Q1019 NOSIG